sensor_id;sensor_type;location;lat;lon;timestamp;pressure;altitude;pressure_sealevel;temperature;humidity
46079;BME280;31820;51.880;-0.518;2022-07-04T00:01:04;100199.22;;;13.97;100.00
46079;BME280;31820;51.880;-0.518;2022-07-04T00:03:29;100205.34;;;13.99;100.00
46079;BME280;31820;51.880;-0.518;2022-07-04T00:05:55;100198.50;;;14.04;100.00
46079;BME280;31820;51.880;-0.518;2022-07-04T00:08:20;100197.69;;;13.84;100.00
46079;BME280;31820;51.880;-0.518;2022-07-04T00:10:46;100199.53;;;13.93;100.00
46079;BME280;31820;51.880;-0.518;2022-07-04T00:13:11;100185.25;;;13.82;100.00
46079;BME280;31820;51.880;-0.518;2022-07-04T00:15:37;100184.69;;;13.88;100.00
46079;BME280;31820;51.880;-0.518;2022-07-04T00:18:02;100184.25;;;13.92;100.00
46079;BME280;31820;51.880;-0.518;2022-07-04T00:20:28;100182.81;;;13.98;100.00
46079;BME280;31820;51.880;-0.518;2022-07-04T00:22:54;100175.50;;;14.08;100.00
46079;BME280;31820;51.880;-0.518;2022-07-04T00:25:19;100171.50;;;14.13;100.00
46079;BME280;31820;51.880;-0.518;2022-07-04T00:27:45;100171.22;;;14.16;100.00
46079;BME280;31820;51.880;-0.518;2022-07-04T00:30:11;100170.63;;;14.12;100.00
46079;BME280;31820;51.880;-0.518;2022-07-04T00:32:36;100174.75;;;14.16;100.00
46079;BME280;31820;51.880;-0.518;2022-07-04T00:35:02;100174.25;;;14.03;100.00
46079;BME280;31820;51.880;-0.518;2022-07-04T00:37:27;100172.34;;;14.13;100.00
46079;BME280;31820;51.880;-0.518;2022-07-04T00:39:53;100176.66;;;14.06;100.00
46079;BME280;31820;51.880;-0.518;2022-07-04T00:42:20;100185.94;;;14.03;100.00
46079;BME280;31820;51.880;-0.518;2022-07-04T00:44:46;100190.94;;;13.98;100.00
46079;BME280;31820;51.880;-0.518;2022-07-04T00:47:11;100184.38;;;14.01;100.00
46079;BME280;31820;51.880;-0.518;2022-07-04T00:49:37;100183.09;;;13.95;100.00
46079;BME280;31820;51.880;-0.518;2022-07-04T00:52:02;100182.53;;;13.91;100.00
46079;BME280;31820;51.880;-0.518;2022-07-04T00:54:30;100174.25;;;13.93;100.00
46079;BME280;31820;51.880;-0.518;2022-07-04T00:56:56;100185.22;;;13.91;100.00
46079;BME280;31820;51.880;-0.518;2022-07-04T00:59:22;100180.53;;;13.93;100.00
46079;BME280;31820;51.880;-0.518;2022-07-04T01:01:49;100178.13;;;13.90;100.00
46079;BME280;31820;51.880;-0.518;2022-07-04T01:04:15;100173.41;;;13.83;100.00
46079;BME280;31820;51.880;-0.518;2022-07-04T01:06:40;100178.69;;;13.84;100.00
46079;BME280;31820;51.880;-0.518;2022-07-04T01:09:06;100177.72;;;13.85;100.00
46079;BME280;31820;51.880;-0.518;2022-07-04T01:11:32;100177.13;;;13.82;100.00
46079;BME280;31820;51.880;-0.518;2022-07-04T01:13:58;100178.84;;;13.83;100.00
46079;BME280;31820;51.880;-0.518;2022-07-04T01:16:27;100182.00;;;13.78;100.00
46079;BME280;31820;51.880;-0.518;2022-07-04T01:18:53;100187.00;;;13.73;100.00
46079;BME280;31820;51.880;-0.518;2022-07-04T01:21:19;100183.53;;;13.71;100.00
46079;BME280;31820;51.880;-0.518;2022-07-04T01:23:45;100174.28;;;13.73;100.00
46079;BME280;31820;51.880;-0.518;2022-07-04T01:26:11;100172.28;;;13.66;100.00
46079;BME280;31820;51.880;-0.518;2022-07-04T01:28:37;100170.47;;;13.66;100.00
46079;BME280;31820;51.880;-0.518;2022-07-04T01:31:04;100179.72;;;13.64;100.00
46079;BME280;31820;51.880;-0.518;2022-07-04T01:33:30;100182.44;;;13.54;100.00
46079;BME280;31820;51.880;-0.518;2022-07-04T01:35:56;100179.59;;;13.55;100.00
46079;BME280;31820;51.880;-0.518;2022-07-04T01:38:21;100179.72;;;13.54;100.00
46079;BME280;31820;51.880;-0.518;2022-07-04T01:40:47;100178.16;;;13.51;100.00
46079;BME280;31820;51.880;-0.518;2022-07-04T01:43:12;100179.47;;;13.47;100.00
46079;BME280;31820;51.880;-0.518;2022-07-04T01:45:38;100181.56;;;13.44;100.00
46079;BME280;31820;51.880;-0.518;2022-07-04T01:48:08;100177.72;;;13.46;100.00
46079;BME280;31820;51.880;-0.518;2022-07-04T01:50:35;100159.31;;;13.30;100.00
46079;BME280;31820;51.880;-0.518;2022-07-04T01:53:01;100173.44;;;13.34;100.00
46079;BME280;31820;51.880;-0.518;2022-07-04T01:55:27;100158.44;;;13.30;100.00
46079;BME280;31820;51.880;-0.518;2022-07-04T01:57:52;100173.16;;;13.37;100.00
46079;BME280;31820;51.880;-0.518;2022-07-04T02:00:18;100165.16;;;13.26;100.00
46079;BME280;31820;51.880;-0.518;2022-07-04T02:03:02;100168.41;;;13.19;100.00
46079;BME280;31820;51.880;-0.518;2022-07-04T02:05:28;100173.69;;;13.21;100.00
46079;BME280;31820;51.880;-0.518;2022-07-04T02:07:53;100171.13;;;13.10;100.00
46079;BME280;31820;51.880;-0.518;2022-07-04T02:10:19;100163.84;;;13.10;100.00
46079;BME280;31820;51.880;-0.518;2022-07-04T02:12:45;100162.88;;;13.11;100.00
46079;BME280;31820;51.880;-0.518;2022-07-04T02:15:30;100163.41;;;13.05;100.00
46079;BME280;31820;51.880;-0.518;2022-07-04T02:17:57;100154.84;;;12.90;100.00
46079;BME280;31820;51.880;-0.518;2022-07-04T02:20:23;100153.44;;;12.96;100.00
46079;BME280;31820;51.880;-0.518;2022-07-04T02:22:49;100149.41;;;12.90;100.00
46079;BME280;31820;51.880;-0.518;2022-07-04T02:25:15;100140.03;;;12.84;100.00
46079;BME280;31820;51.880;-0.518;2022-07-04T02:27:40;100149.13;;;12.83;100.00
46079;BME280;31820;51.880;-0.518;2022-07-04T02:30:07;100147.44;;;12.82;100.00
46079;BME280;31820;51.880;-0.518;2022-07-04T02:32:34;100153.13;;;12.79;100.00
46079;BME280;31820;51.880;-0.518;2022-07-04T02:35:00;100147.72;;;12.79;100.00
46079;BME280;31820;51.880;-0.518;2022-07-04T02:37:25;100136.31;;;12.85;100.00
46079;BME280;31820;51.880;-0.518;2022-07-04T02:39:51;100144.72;;;12.82;100.00
46079;BME280;31820;51.880;-0.518;2022-07-04T02:42:16;100143.56;;;12.75;100.00
46079;BME280;31820;51.880;-0.518;2022-07-04T02:44:42;100138.72;;;12.79;100.00
46079;BME280;31820;51.880;-0.518;2022-07-04T02:47:08;100123.50;;;12.78;100.00
46079;BME280;31820;51.880;-0.518;2022-07-04T02:49:34;100118.09;;;12.78;100.00
46079;BME280;31820;51.880;-0.518;2022-07-04T02:51:59;100126.34;;;12.76;100.00
46079;BME280;31820;51.880;-0.518;2022-07-04T02:54:25;100130.47;;;12.80;100.00
46079;BME280;31820;51.880;-0.518;2022-07-04T02:56:50;100126.91;;;12.70;100.00
46079;BME280;31820;51.880;-0.518;2022-07-04T02:59:16;100125.19;;;12.69;100.00
46079;BME280;31820;51.880;-0.518;2022-07-04T03:01:41;100121.59;;;12.59;100.00
46079;BME280;31820;51.880;-0.518;2022-07-04T03:04:07;100128.88;;;12.68;100.00
46079;BME280;31820;51.880;-0.518;2022-07-04T03:06:32;100126.16;;;12.68;100.00
46079;BME280;31820;51.880;-0.518;2022-07-04T03:08:58;100125.31;;;12.67;100.00
46079;BME280;31820;51.880;-0.518;2022-07-04T03:11:23;100125.44;;;12.56;100.00
46079;BME280;31820;51.880;-0.518;2022-07-04T03:13:48;100132.00;;;12.63;100.00
46079;BME280;31820;51.880;-0.518;2022-07-04T03:16:14;100118.63;;;12.62;100.00
46079;BME280;31820;51.880;-0.518;2022-07-04T03:18:40;100128.72;;;12.60;100.00
46079;BME280;31820;51.880;-0.518;2022-07-04T03:21:06;100133.00;;;12.62;100.00
46079;BME280;31820;51.880;-0.518;2022-07-04T03:23:32;100148.94;;;12.65;100.00
46079;BME280;31820;51.880;-0.518;2022-07-04T03:25:58;100140.44;;;12.70;100.00
46079;BME280;31820;51.880;-0.518;2022-07-04T03:28:24;100147.66;;;12.70;100.00
46079;BME280;31820;51.880;-0.518;2022-07-04T03:30:49;100144.38;;;12.66;100.00
46079;BME280;31820;51.880;-0.518;2022-07-04T03:33:15;100145.97;;;12.69;100.00
46079;BME280;31820;51.880;-0.518;2022-07-04T03:35:41;100150.50;;;12.68;100.00
46079;BME280;31820;51.880;-0.518;2022-07-04T03:38:06;100154.22;;;12.67;100.00
46079;BME280;31820;51.880;-0.518;2022-07-04T03:40:32;100151.81;;;12.64;100.00
46079;BME280;31820;51.880;-0.518;2022-07-04T03:42:58;100158.06;;;12.64;100.00
46079;BME280;31820;51.880;-0.518;2022-07-04T03:45:24;100168.47;;;12.69;100.00
46079;BME280;31820;51.880;-0.518;2022-07-04T03:47:50;100158.75;;;12.57;100.00
46079;BME280;31820;51.880;-0.518;2022-07-04T03:50:16;100176.69;;;12.58;100.00
46079;BME280;31820;51.880;-0.518;2022-07-04T03:52:42;100171.84;;;12.61;100.00
46079;BME280;31820;51.880;-0.518;2022-07-04T03:55:08;100170.09;;;12.51;100.00
46079;BME280;31820;51.880;-0.518;2022-07-04T03:57:34;100178.50;;;12.47;100.00
46079;BME280;31820;51.880;-0.518;2022-07-04T03:59:59;100184.91;;;12.46;100.00
46079;BME280;31820;51.880;-0.518;2022-07-04T04:02:25;100192.63;;;12.51;100.00
46079;BME280;31820;51.880;-0.518;2022-07-04T04:04:50;100182.03;;;12.38;100.00
46079;BME280;31820;51.880;-0.518;2022-07-04T04:07:34;100191.16;;;12.47;100.00
46079;BME280;31820;51.880;-0.518;2022-07-04T04:10:00;100192.00;;;12.47;100.00
46079;BME280;31820;51.880;-0.518;2022-07-04T04:12:25;100184.16;;;12.44;100.00
46079;BME280;31820;51.880;-0.518;2022-07-04T04:14:51;100191.06;;;12.58;100.00
46079;BME280;31820;51.880;-0.518;2022-07-04T04:17:17;100187.50;;;12.58;100.00
46079;BME280;31820;51.880;-0.518;2022-07-04T04:19:42;100195.34;;;12.61;100.00
46079;BME280;31820;51.880;-0.518;2022-07-04T04:22:07;100197.00;;;12.52;100.00
46079;BME280;31820;51.880;-0.518;2022-07-04T04:24:33;100194.94;;;12.65;100.00
46079;BME280;31820;51.880;-0.518;2022-07-04T04:26:58;100183.56;;;12.62;100.00
46079;BME280;31820;51.880;-0.518;2022-07-04T04:29:24;100188.66;;;12.65;100.00
46079;BME280;31820;51.880;-0.518;2022-07-04T04:31:50;100190.97;;;12.70;100.00
46079;BME280;31820;51.880;-0.518;2022-07-04T04:34:15;100198.13;;;12.80;100.00
46079;BME280;31820;51.880;-0.518;2022-07-04T04:36:41;100188.75;;;12.84;100.00
46079;BME280;31820;51.880;-0.518;2022-07-04T04:39:06;100192.63;;;13.01;100.00
46079;BME280;31820;51.880;-0.518;2022-07-04T04:41:32;100191.34;;;13.15;100.00
46079;BME280;31820;51.880;-0.518;2022-07-04T04:43:57;100189.38;;;13.17;100.00
46079;BME280;31820;51.880;-0.518;2022-07-04T04:46:23;100183.97;;;13.17;100.00
46079;BME280;31820;51.880;-0.518;2022-07-04T04:48:48;100185.38;;;13.21;100.00
46079;BME280;31820;51.880;-0.518;2022-07-04T04:51:14;100178.00;;;13.24;100.00
46079;BME280;31820;51.880;-0.518;2022-07-04T04:53:39;100179.00;;;13.42;100.00
46079;BME280;31820;51.880;-0.518;2022-07-04T04:56:05;100178.59;;;13.37;100.00
46079;BME280;31820;51.880;-0.518;2022-07-04T04:58:30;100179.88;;;13.52;100.00
46079;BME280;31820;51.880;-0.518;2022-07-04T05:00:56;100172.19;;;14.15;100.00
46079;BME280;31820;51.880;-0.518;2022-07-04T05:03:21;100175.19;;;15.32;95.70
46079;BME280;31820;51.880;-0.518;2022-07-04T05:05:47;100181.78;;;15.84;91.56
46079;BME280;31820;51.880;-0.518;2022-07-04T05:08:12;100190.47;;;18.57;75.77
46079;BME280;31820;51.880;-0.518;2022-07-04T05:10:39;100189.75;;;20.03;62.49
46079;BME280;31820;51.880;-0.518;2022-07-04T05:13:05;100194.78;;;21.41;58.17
46079;BME280;31820;51.880;-0.518;2022-07-04T05:15:32;100194.13;;;22.25;51.89
46079;BME280;31820;51.880;-0.518;2022-07-04T05:17:58;100199.25;;;22.63;50.24
46079;BME280;31820;51.880;-0.518;2022-07-04T05:20:24;100196.47;;;22.98;47.17
46079;BME280;31820;51.880;-0.518;2022-07-04T05:22:50;100198.59;;;23.58;45.05
46079;BME280;31820;51.880;-0.518;2022-07-04T05:25:15;100185.94;;;23.97;43.68
46079;BME280;31820;51.880;-0.518;2022-07-04T05:27:41;100189.69;;;24.69;41.76
46079;BME280;31820;51.880;-0.518;2022-07-04T05:30:07;100201.13;;;25.25;40.82
46079;BME280;31820;51.880;-0.518;2022-07-04T05:32:33;100192.38;;;25.41;39.84
46079;BME280;31820;51.880;-0.518;2022-07-04T05:34:59;100193.59;;;25.77;39.16
46079;BME280;31820;51.880;-0.518;2022-07-04T05:37:25;100189.59;;;26.30;38.83
46079;BME280;31820;51.880;-0.518;2022-07-04T05:39:51;100191.06;;;27.44;37.07
46079;BME280;31820;51.880;-0.518;2022-07-04T05:42:17;100194.34;;;27.95;36.18
46079;BME280;31820;51.880;-0.518;2022-07-04T05:44:42;100195.97;;;27.84;35.05
46079;BME280;31820;51.880;-0.518;2022-07-04T05:47:08;100193.44;;;27.40;35.95
46079;BME280;31820;51.880;-0.518;2022-07-04T05:49:34;100203.16;;;28.04;36.21
46079;BME280;31820;51.880;-0.518;2022-07-04T05:51:59;100199.06;;;28.65;34.68
46079;BME280;31820;51.880;-0.518;2022-07-04T05:54:25;100207.31;;;29.13;33.42
46079;BME280;31820;51.880;-0.518;2022-07-04T05:56:50;100202.13;;;29.16;32.66
46079;BME280;31820;51.880;-0.518;2022-07-04T05:59:16;100198.28;;;29.05;33.58
46079;BME280;31820;51.880;-0.518;2022-07-04T06:01:41;100204.06;;;29.73;32.07
46079;BME280;31820;51.880;-0.518;2022-07-04T06:04:07;100201.50;;;29.84;32.85
46079;BME280;31820;51.880;-0.518;2022-07-04T06:06:33;100196.44;;;29.23;32.27
46079;BME280;31820;51.880;-0.518;2022-07-04T06:08:58;100195.31;;;28.83;33.49
46079;BME280;31820;51.880;-0.518;2022-07-04T06:11:24;100197.97;;;29.59;32.49
46079;BME280;31820;51.880;-0.518;2022-07-04T06:13:50;100202.78;;;29.64;31.88
46079;BME280;31820;51.880;-0.518;2022-07-04T06:16:16;100200.41;;;30.19;32.00
46079;BME280;31820;51.880;-0.518;2022-07-04T06:18:42;100209.19;;;30.44;30.28
46079;BME280;31820;51.880;-0.518;2022-07-04T06:21:08;100188.13;;;30.93;30.25
46079;BME280;31820;51.880;-0.518;2022-07-04T06:23:34;100193.59;;;31.27;29.86
46079;BME280;31820;51.880;-0.518;2022-07-04T06:26:00;100188.41;;;31.90;29.84
46079;BME280;31820;51.880;-0.518;2022-07-04T06:28:25;100195.66;;;32.23;29.22
46079;BME280;31820;51.880;-0.518;2022-07-04T06:30:51;100191.00;;;30.98;29.82
46079;BME280;31820;51.880;-0.518;2022-07-04T06:33:17;100197.38;;;31.43;29.30
46079;BME280;31820;51.880;-0.518;2022-07-04T06:35:44;100188.34;;;32.12;29.46
46079;BME280;31820;51.880;-0.518;2022-07-04T06:38:17;100188.94;;;31.87;28.98
46079;BME280;31820;51.880;-0.518;2022-07-04T06:40:43;100193.31;;;32.10;28.57
46079;BME280;31820;51.880;-0.518;2022-07-04T06:43:09;100194.59;;;32.30;28.19
46079;BME280;31820;51.880;-0.518;2022-07-04T06:45:35;100189.09;;;32.45;28.81
46079;BME280;31820;51.880;-0.518;2022-07-04T06:48:01;100191.09;;;28.81;31.91
46079;BME280;31820;51.880;-0.518;2022-07-04T06:50:27;100191.66;;;27.88;33.76
46079;BME280;31820;51.880;-0.518;2022-07-04T06:52:53;100198.84;;;28.79;33.51
46079;BME280;31820;51.880;-0.518;2022-07-04T06:55:18;100193.50;;;30.21;30.58
46079;BME280;31820;51.880;-0.518;2022-07-04T06:57:44;100198.63;;;29.09;32.04
46079;BME280;31820;51.880;-0.518;2022-07-04T07:00:10;100199.41;;;27.98;32.95
46079;BME280;31820;51.880;-0.518;2022-07-04T07:02:36;100194.09;;;27.05;34.51
46079;BME280;31820;51.880;-0.518;2022-07-04T07:05:03;100196.44;;;25.96;37.29
46079;BME280;31820;51.880;-0.518;2022-07-04T07:07:29;100199.84;;;27.41;35.96
46079;BME280;31820;51.880;-0.518;2022-07-04T07:09:55;100199.56;;;28.50;33.53
46079;BME280;31820;51.880;-0.518;2022-07-04T07:12:21;100195.88;;;27.49;35.36
46079;BME280;31820;51.880;-0.518;2022-07-04T07:14:47;100196.28;;;29.87;32.14
46079;BME280;31820;51.880;-0.518;2022-07-04T07:17:13;100204.66;;;31.21;30.13
46079;BME280;31820;51.880;-0.518;2022-07-04T07:19:40;100198.06;;;32.09;28.39
46079;BME280;31820;51.880;-0.518;2022-07-04T07:22:06;100198.81;;;32.00;28.69
46079;BME280;31820;51.880;-0.518;2022-07-04T07:24:31;100199.50;;;33.08;28.00
46079;BME280;31820;51.880;-0.518;2022-07-04T07:26:57;100201.69;;;33.74;27.85
46079;BME280;31820;51.880;-0.518;2022-07-04T07:29:23;100198.63;;;33.86;26.71
46079;BME280;31820;51.880;-0.518;2022-07-04T07:31:49;100195.78;;;33.65;27.41
46079;BME280;31820;51.880;-0.518;2022-07-04T07:34:14;100196.03;;;35.42;25.13
46079;BME280;31820;51.880;-0.518;2022-07-04T07:36:40;100184.75;;;31.35;29.36
46079;BME280;31820;51.880;-0.518;2022-07-04T07:39:06;100178.13;;;28.58;31.88
46079;BME280;31820;51.880;-0.518;2022-07-04T07:41:31;100183.22;;;27.22;34.56
46079;BME280;31820;51.880;-0.518;2022-07-04T07:43:57;100185.59;;;26.01;36.82
46079;BME280;31820;51.880;-0.518;2022-07-04T07:46:22;100193.50;;;25.27;38.08
46079;BME280;31820;51.880;-0.518;2022-07-04T07:48:48;100188.53;;;24.90;39.39
46079;BME280;31820;51.880;-0.518;2022-07-04T07:51:13;100196.13;;;29.94;32.79
46079;BME280;31820;51.880;-0.518;2022-07-04T07:53:40;100189.22;;;31.90;30.48
46079;BME280;31820;51.880;-0.518;2022-07-04T07:56:06;100183.50;;;29.57;31.86
46079;BME280;31820;51.880;-0.518;2022-07-04T07:58:31;100184.81;;;27.30;35.63
46079;BME280;31820;51.880;-0.518;2022-07-04T08:00:57;100180.09;;;26.82;36.48
46079;BME280;31820;51.880;-0.518;2022-07-04T08:03:23;100179.91;;;26.65;37.29
46079;BME280;31820;51.880;-0.518;2022-07-04T08:06:07;100184.22;;;28.24;35.53
46079;BME280;31820;51.880;-0.518;2022-07-04T08:08:33;100201.78;;;31.11;31.64
46079;BME280;31820;51.880;-0.518;2022-07-04T08:10:59;100194.72;;;31.03;30.93
46079;BME280;31820;51.880;-0.518;2022-07-04T08:13:25;100191.59;;;32.41;29.35
46079;BME280;31820;51.880;-0.518;2022-07-04T08:15:50;100190.41;;;31.67;28.73
46079;BME280;31820;51.880;-0.518;2022-07-04T08:18:16;100191.84;;;32.77;28.91
46079;BME280;31820;51.880;-0.518;2022-07-04T08:20:43;100190.59;;;30.67;30.78
46079;BME280;31820;51.880;-0.518;2022-07-04T08:23:09;100193.72;;;32.67;28.78
46079;BME280;31820;51.880;-0.518;2022-07-04T08:25:35;100187.56;;;30.35;31.46
46079;BME280;31820;51.880;-0.518;2022-07-04T08:28:00;100191.56;;;28.90;33.95
46079;BME280;31820;51.880;-0.518;2022-07-04T08:30:26;100191.81;;;28.88;34.24
46079;BME280;31820;51.880;-0.518;2022-07-04T08:32:51;100193.78;;;32.02;30.59
46079;BME280;31820;51.880;-0.518;2022-07-04T08:35:17;100195.47;;;31.48;29.24
46079;BME280;31820;51.880;-0.518;2022-07-04T08:37:42;100195.91;;;31.35;29.91
46079;BME280;31820;51.880;-0.518;2022-07-04T08:40:08;100196.34;;;32.41;29.03
46079;BME280;31820;51.880;-0.518;2022-07-04T08:42:35;100193.19;;;33.33;27.94
46079;BME280;31820;51.880;-0.518;2022-07-04T08:45:02;100188.25;;;32.92;27.42
46079;BME280;31820;51.880;-0.518;2022-07-04T08:47:30;100192.47;;;30.27;30.69
46079;BME280;31820;51.880;-0.518;2022-07-04T08:52:36;100177.19;;;27.86;34.06
46079;BME280;31820;51.880;-0.518;2022-07-04T08:55:03;100182.72;;;27.86;33.54
46079;BME280;31820;51.880;-0.518;2022-07-04T08:57:48;100182.16;;;27.23;35.50
46079;BME280;31820;51.880;-0.518;2022-07-04T09:00:34;100179.16;;;25.75;38.61
46079;BME280;31820;51.880;-0.518;2022-07-04T09:03:01;100171.50;;;25.77;38.37
46079;BME280;31820;51.880;-0.518;2022-07-04T09:05:28;100164.81;;;24.83;41.14
46079;BME280;31820;51.880;-0.518;2022-07-04T09:07:54;100163.88;;;23.97;42.89
46079;BME280;31820;51.880;-0.518;2022-07-04T09:10:21;100173.97;;;23.43;43.62
46079;BME280;31820;51.880;-0.518;2022-07-04T09:12:47;100165.75;;;23.83;42.04
46079;BME280;31820;51.880;-0.518;2022-07-04T09:15:14;100160.47;;;23.61;43.21
46079;BME280;31820;51.880;-0.518;2022-07-04T09:17:40;100162.38;;;23.81;43.12
46079;BME280;31820;51.880;-0.518;2022-07-04T09:20:17;100156.16;;;23.25;43.76
46079;BME280;31820;51.880;-0.518;2022-07-04T09:22:43;100148.78;;;23.46;43.24
46079;BME280;31820;51.880;-0.518;2022-07-04T09:25:10;100169.72;;;23.34;43.29
46079;BME280;31820;51.880;-0.518;2022-07-04T09:27:41;100170.34;;;23.29;43.55
46079;BME280;31820;51.880;-0.518;2022-07-04T09:30:11;100173.56;;;23.33;43.93
46079;BME280;31820;51.880;-0.518;2022-07-04T09:32:45;100179.94;;;23.53;44.11
46079;BME280;31820;51.880;-0.518;2022-07-04T09:35:18;100175.91;;;23.62;44.15
46079;BME280;31820;51.880;-0.518;2022-07-04T09:37:48;100179.13;;;23.73;43.37
46079;BME280;31820;51.880;-0.518;2022-07-04T09:40:37;100171.28;;;23.76;44.24
46079;BME280;31820;51.880;-0.518;2022-07-04T09:43:23;100179.94;;;23.53;44.59
46079;BME280;31820;51.880;-0.518;2022-07-04T09:45:59;100175.28;;;23.47;45.10
46079;BME280;31820;51.880;-0.518;2022-07-04T09:48:48;100180.72;;;23.34;45.13
46079;BME280;31820;51.880;-0.518;2022-07-04T09:51:14;100181.91;;;22.63;45.86
46079;BME280;31820;51.880;-0.518;2022-07-04T09:53:39;100181.19;;;22.47;46.38
46079;BME280;31820;51.880;-0.518;2022-07-04T09:56:05;100179.22;;;22.13;47.85
46079;BME280;31820;51.880;-0.518;2022-07-04T09:58:31;100179.97;;;22.00;48.65
46079;BME280;31820;51.880;-0.518;2022-07-04T10:00:59;100183.34;;;22.23;49.04
46079;BME280;31820;51.880;-0.518;2022-07-04T10:03:30;100181.78;;;22.43;47.76
46079;BME280;31820;51.880;-0.518;2022-07-04T10:06:14;100174.38;;;22.43;48.35
46079;BME280;31820;51.880;-0.518;2022-07-04T10:08:43;100178.38;;;22.40;48.03
46079;BME280;31820;51.880;-0.518;2022-07-04T10:11:10;100175.13;;;22.58;47.68
46079;BME280;31820;51.880;-0.518;2022-07-04T10:13:36;100181.94;;;22.34;47.60
46079;BME280;31820;51.880;-0.518;2022-07-04T10:16:02;100177.19;;;22.91;47.07
46079;BME280;31820;51.880;-0.518;2022-07-04T10:18:28;100170.94;;;23.11;46.97
46079;BME280;31820;51.880;-0.518;2022-07-04T10:20:55;100185.25;;;22.93;46.17
46079;BME280;31820;51.880;-0.518;2022-07-04T10:23:22;100182.63;;;22.43;47.50
46079;BME280;31820;51.880;-0.518;2022-07-04T10:25:48;100185.31;;;22.30;49.94
46079;BME280;31820;51.880;-0.518;2022-07-04T10:28:15;100175.50;;;22.49;48.49
46079;BME280;31820;51.880;-0.518;2022-07-04T10:30:41;100174.78;;;23.23;47.95
46079;BME280;31820;51.880;-0.518;2022-07-04T10:33:11;100173.97;;;22.88;47.67
46079;BME280;31820;51.880;-0.518;2022-07-04T10:35:57;100158.88;;;22.70;47.42
46079;BME280;31820;51.880;-0.518;2022-07-04T10:38:27;100170.84;;;22.21;47.66
46079;BME280;31820;51.880;-0.518;2022-07-04T10:40:54;100165.25;;;22.08;48.53
46079;BME280;31820;51.880;-0.518;2022-07-04T10:48:36;100166.88;;;22.02;51.01
46079;BME280;31820;51.880;-0.518;2022-07-04T10:51:03;100167.84;;;22.16;49.90
46079;BME280;31820;51.880;-0.518;2022-07-04T10:53:30;100162.69;;;22.34;50.34
46079;BME280;31820;51.880;-0.518;2022-07-04T10:58:42;100165.03;;;21.81;52.49
46079;BME280;31820;51.880;-0.518;2022-07-04T11:01:12;100165.19;;;22.01;52.04
46079;BME280;31820;51.880;-0.518;2022-07-04T11:03:52;100172.88;;;22.12;51.06
46079;BME280;31820;51.880;-0.518;2022-07-04T11:11:49;100161.75;;;22.20;50.20
46079;BME280;31820;51.880;-0.518;2022-07-04T11:14:34;100164.75;;;22.26;49.82
46079;BME280;31820;51.880;-0.518;2022-07-04T11:17:04;100149.28;;;22.25;49.23
46079;BME280;31820;51.880;-0.518;2022-07-04T11:19:30;100164.94;;;21.96;49.59
46079;BME280;31820;51.880;-0.518;2022-07-04T11:21:56;100164.16;;;21.80;51.21
46079;BME280;31820;51.880;-0.518;2022-07-04T11:24:24;100170.34;;;21.82;52.50
46079;BME280;31820;51.880;-0.518;2022-07-04T11:26:50;100154.50;;;21.84;52.95
46079;BME280;31820;51.880;-0.518;2022-07-04T11:29:16;100166.28;;;21.78;52.73
46079;BME280;31820;51.880;-0.518;2022-07-04T11:31:47;100162.34;;;21.88;51.64
46079;BME280;31820;51.880;-0.518;2022-07-04T11:34:13;100172.78;;;21.77;50.95
46079;BME280;31820;51.880;-0.518;2022-07-04T11:36:41;100165.19;;;21.51;52.63
46079;BME280;31820;51.880;-0.518;2022-07-04T11:39:11;100174.06;;;21.53;54.05
46079;BME280;31820;51.880;-0.518;2022-07-04T11:41:40;100172.44;;;21.59;53.32
46079;BME280;31820;51.880;-0.518;2022-07-04T11:44:27;100163.34;;;21.58;53.10
46079;BME280;31820;51.880;-0.518;2022-07-04T11:47:13;100165.97;;;21.66;52.24
46079;BME280;31820;51.880;-0.518;2022-07-04T11:49:45;100162.34;;;21.88;53.00
46079;BME280;31820;51.880;-0.518;2022-07-04T11:52:12;100169.13;;;22.20;51.29
46079;BME280;31820;51.880;-0.518;2022-07-04T11:54:42;100161.69;;;22.42;50.45
46079;BME280;31820;51.880;-0.518;2022-07-04T11:57:16;100159.44;;;22.24;49.61
46079;BME280;31820;51.880;-0.518;2022-07-04T11:59:42;100159.56;;;22.09;50.04
46079;BME280;31820;51.880;-0.518;2022-07-04T12:02:15;100158.81;;;21.94;51.72
46079;BME280;31820;51.880;-0.518;2022-07-04T12:04:42;100157.25;;;21.84;51.22
46079;BME280;31820;51.880;-0.518;2022-07-04T12:07:12;100164.00;;;21.60;51.95
46079;BME280;31820;51.880;-0.518;2022-07-04T12:09:39;100156.59;;;21.82;51.61
46079;BME280;31820;51.880;-0.518;2022-07-04T12:12:05;100163.97;;;21.82;50.08
46079;BME280;31820;51.880;-0.518;2022-07-04T12:14:31;100160.22;;;22.39;50.15
46079;BME280;31820;51.880;-0.518;2022-07-04T12:17:17;100163.56;;;22.35;48.55
46079;BME280;31820;51.880;-0.518;2022-07-04T12:19:50;100159.50;;;22.02;48.86
46079;BME280;31820;51.880;-0.518;2022-07-04T12:22:27;100165.69;;;22.11;48.74
46079;BME280;31820;51.880;-0.518;2022-07-04T12:24:53;100160.97;;;21.77;49.22
46079;BME280;31820;51.880;-0.518;2022-07-04T12:27:18;100161.69;;;21.85;48.77
46079;BME280;31820;51.880;-0.518;2022-07-04T12:29:49;100155.72;;;21.82;49.88
46079;BME280;31820;51.880;-0.518;2022-07-04T12:32:15;100154.47;;;22.06;48.94
46079;BME280;31820;51.880;-0.518;2022-07-04T12:34:40;100166.28;;;22.07;48.96
46079;BME280;31820;51.880;-0.518;2022-07-04T12:37:11;100166.84;;;21.95;48.77
46079;BME280;31820;51.880;-0.518;2022-07-04T12:39:39;100161.31;;;21.89;49.42
46079;BME280;31820;51.880;-0.518;2022-07-04T12:42:07;100159.84;;;21.71;50.52
46079;BME280;31820;51.880;-0.518;2022-07-04T12:44:34;100168.56;;;21.17;52.29
46079;BME280;31820;51.880;-0.518;2022-07-04T12:46:59;100170.63;;;20.93;54.28
46079;BME280;31820;51.880;-0.518;2022-07-04T12:49:26;100167.41;;;20.89;54.94
46079;BME280;31820;51.880;-0.518;2022-07-04T12:51:51;100173.22;;;21.16;53.57